sensor_id;sensor_type;location;lat;lon;timestamp;P1;durP1;ratioP1;P2;durP2;ratioP2
51907;SDS011;39320;53.214;6.556;2022-07-09T00:00:38;9.80;;;6.15;;
51907;SDS011;39320;53.214;6.556;2022-07-09T00:03:03;9.68;;;6.18;;
51907;SDS011;39320;53.214;6.556;2022-07-09T00:05:29;13.13;;;6.28;;
51907;SDS011;39320;53.214;6.556;2022-07-09T00:07:55;7.93;;;5.53;;
51907;SDS011;39320;53.214;6.556;2022-07-09T00:10:21;13.52;;;6.18;;
51907;SDS011;39320;53.214;6.556;2022-07-09T00:12:46;11.25;;;5.80;;
51907;SDS011;39320;53.214;6.556;2022-07-09T00:15:15;12.38;;;6.82;;
51907;SDS011;39320;53.214;6.556;2022-07-09T00:17:40;10.95;;;6.80;;
51907;SDS011;39320;53.214;6.556;2022-07-09T00:20:06;11.88;;;6.38;;
51907;SDS011;39320;53.214;6.556;2022-07-09T00:22:33;11.77;;;6.70;;
51907;SDS011;39320;53.214;6.556;2022-07-09T00:24:59;10.18;;;6.05;;
51907;SDS011;39320;53.214;6.556;2022-07-09T00:27:26;17.40;;;7.13;;
51907;SDS011;39320;53.214;6.556;2022-07-09T00:29:52;11.63;;;6.28;;
51907;SDS011;39320;53.214;6.556;2022-07-09T00:32:17;12.75;;;7.90;;
51907;SDS011;39320;53.214;6.556;2022-07-09T00:34:43;12.95;;;6.95;;
51907;SDS011;39320;53.214;6.556;2022-07-09T00:37:09;11.70;;;6.80;;
51907;SDS011;39320;53.214;6.556;2022-07-09T00:39:35;13.10;;;7.28;;
51907;SDS011;39320;53.214;6.556;2022-07-09T00:42:03;12.20;;;6.63;;
51907;SDS011;39320;53.214;6.556;2022-07-09T00:44:30;10.98;;;7.20;;
51907;SDS011;39320;53.214;6.556;2022-07-09T00:46:56;13.10;;;6.95;;
51907;SDS011;39320;53.214;6.556;2022-07-09T00:49:22;15.98;;;7.18;;
51907;SDS011;39320;53.214;6.556;2022-07-09T00:51:49;13.18;;;7.20;;
51907;SDS011;39320;53.214;6.556;2022-07-09T00:54:15;10.55;;;6.80;;
51907;SDS011;39320;53.214;6.556;2022-07-09T00:56:41;16.17;;;7.32;;
51907;SDS011;39320;53.214;6.556;2022-07-09T00:59:07;10.68;;;7.10;;
51907;SDS011;39320;53.214;6.556;2022-07-09T01:01:37;13.25;;;7.15;;
51907;SDS011;39320;53.214;6.556;2022-07-09T01:04:03;10.57;;;6.78;;
51907;SDS011;39320;53.214;6.556;2022-07-09T01:06:30;9.20;;;6.05;;
51907;SDS011;39320;53.214;6.556;2022-07-09T01:08:56;12.20;;;6.60;;
51907;SDS011;39320;53.214;6.556;2022-07-09T01:11:21;10.90;;;6.65;;
51907;SDS011;39320;53.214;6.556;2022-07-09T01:13:47;11.10;;;6.25;;
51907;SDS011;39320;53.214;6.556;2022-07-09T01:16:14;12.18;;;6.88;;
51907;SDS011;39320;53.214;6.556;2022-07-09T01:18:44;15.77;;;6.93;;
51907;SDS011;39320;53.214;6.556;2022-07-09T01:21:14;10.85;;;5.78;;
51907;SDS011;39320;53.214;6.556;2022-07-09T01:23:40;10.75;;;6.60;;
51907;SDS011;39320;53.214;6.556;2022-07-09T01:26:06;12.23;;;5.95;;
51907;SDS011;39320;53.214;6.556;2022-07-09T01:28:32;13.30;;;7.07;;
51907;SDS011;39320;53.214;6.556;2022-07-09T01:30:58;13.13;;;7.00;;
51907;SDS011;39320;53.214;6.556;2022-07-09T01:33:25;10.18;;;5.78;;
51907;SDS011;39320;53.214;6.556;2022-07-09T01:35:51;9.98;;;6.15;;
51907;SDS011;39320;53.214;6.556;2022-07-09T01:38:16;14.68;;;6.13;;
51907;SDS011;39320;53.214;6.556;2022-07-09T01:40:42;11.98;;;6.38;;
51907;SDS011;39320;53.214;6.556;2022-07-09T01:43:08;12.07;;;6.65;;
51907;SDS011;39320;53.214;6.556;2022-07-09T01:45:34;10.00;;;5.57;;
51907;SDS011;39320;53.214;6.556;2022-07-09T01:47:59;14.95;;;6.07;;
51907;SDS011;39320;53.214;6.556;2022-07-09T01:50:25;11.75;;;6.78;;
51907;SDS011;39320;53.214;6.556;2022-07-09T01:52:51;13.88;;;6.90;;
51907;SDS011;39320;53.214;6.556;2022-07-09T01:55:16;11.43;;;6.55;;
51907;SDS011;39320;53.214;6.556;2022-07-09T01:57:42;11.20;;;6.57;;
51907;SDS011;39320;53.214;6.556;2022-07-09T02:00:08;10.25;;;6.18;;
51907;SDS011;39320;53.214;6.556;2022-07-09T02:02:34;12.98;;;6.15;;
51907;SDS011;39320;53.214;6.556;2022-07-09T02:05:00;9.80;;;6.70;;
51907;SDS011;39320;53.214;6.556;2022-07-09T02:07:25;12.05;;;6.90;;
51907;SDS011;39320;53.214;6.556;2022-07-09T02:09:51;11.15;;;7.30;;
51907;SDS011;39320;53.214;6.556;2022-07-09T02:12:17;12.48;;;7.13;;
51907;SDS011;39320;53.214;6.556;2022-07-09T02:14:43;11.32;;;6.10;;
51907;SDS011;39320;53.214;6.556;2022-07-09T02:17:10;14.35;;;7.65;;
51907;SDS011;39320;53.214;6.556;2022-07-09T02:19:36;13.23;;;6.20;;
51907;SDS011;39320;53.214;6.556;2022-07-09T02:22:02;10.88;;;6.22;;
51907;SDS011;39320;53.214;6.556;2022-07-09T02:24:28;11.50;;;6.60;;
51907;SDS011;39320;53.214;6.556;2022-07-09T02:26:54;11.93;;;6.15;;
51907;SDS011;39320;53.214;6.556;2022-07-09T02:29:20;14.25;;;6.85;;
51907;SDS011;39320;53.214;6.556;2022-07-09T02:31:45;11.85;;;6.25;;
51907;SDS011;39320;53.214;6.556;2022-07-09T02:34:11;12.73;;;5.85;;
51907;SDS011;39320;53.214;6.556;2022-07-09T02:36:37;12.70;;;5.70;;
51907;SDS011;39320;53.214;6.556;2022-07-09T02:39:03;12.93;;;6.13;;
51907;SDS011;39320;53.214;6.556;2022-07-09T02:41:28;11.23;;;5.65;;
51907;SDS011;39320;53.214;6.556;2022-07-09T02:43:54;11.80;;;5.72;;
51907;SDS011;39320;53.214;6.556;2022-07-09T02:46:20;10.50;;;5.63;;
51907;SDS011;39320;53.214;6.556;2022-07-09T02:48:45;12.88;;;5.60;;
51907;SDS011;39320;53.214;6.556;2022-07-09T02:51:11;11.48;;;5.47;;
51907;SDS011;39320;53.214;6.556;2022-07-09T02:53:37;12.75;;;5.30;;
51907;SDS011;39320;53.214;6.556;2022-07-09T02:56:03;12.20;;;4.90;;
51907;SDS011;39320;53.214;6.556;2022-07-09T02:58:30;11.90;;;5.15;;
51907;SDS011;39320;53.214;6.556;2022-07-09T03:00:56;10.32;;;4.88;;
51907;SDS011;39320;53.214;6.556;2022-07-09T03:03:22;9.70;;;4.35;;
51907;SDS011;39320;53.214;6.556;2022-07-09T03:05:51;9.25;;;4.38;;
51907;SDS011;39320;53.214;6.556;2022-07-09T03:08:17;7.53;;;4.68;;
51907;SDS011;39320;53.214;6.556;2022-07-09T03:10:47;10.40;;;4.93;;
51907;SDS011;39320;53.214;6.556;2022-07-09T03:13:15;8.88;;;5.07;;
51907;SDS011;39320;53.214;6.556;2022-07-09T03:15:41;8.80;;;5.18;;
51907;SDS011;39320;53.214;6.556;2022-07-09T03:18:06;7.50;;;4.55;;
51907;SDS011;39320;53.214;6.556;2022-07-09T03:20:34;11.00;;;4.38;;
51907;SDS011;39320;53.214;6.556;2022-07-09T03:23:01;9.02;;;3.92;;
51907;SDS011;39320;53.214;6.556;2022-07-09T03:25:27;9.73;;;4.57;;
51907;SDS011;39320;53.214;6.556;2022-07-09T03:27:53;11.18;;;4.90;;
51907;SDS011;39320;53.214;6.556;2022-07-09T03:30:19;10.73;;;4.25;;
51907;SDS011;39320;53.214;6.556;2022-07-09T03:32:45;10.27;;;4.95;;
51907;SDS011;39320;53.214;6.556;2022-07-09T03:35:11;9.75;;;5.20;;
51907;SDS011;39320;53.214;6.556;2022-07-09T03:37:36;13.20;;;4.95;;
51907;SDS011;39320;53.214;6.556;2022-07-09T03:40:02;9.85;;;5.22;;
51907;SDS011;39320;53.214;6.556;2022-07-09T03:42:29;7.35;;;5.07;;
51907;SDS011;39320;53.214;6.556;2022-07-09T03:44:55;12.63;;;5.05;;
51907;SDS011;39320;53.214;6.556;2022-07-09T03:47:21;7.20;;;4.32;;
51907;SDS011;39320;53.214;6.556;2022-07-09T03:49:47;8.85;;;4.45;;
51907;SDS011;39320;53.214;6.556;2022-07-09T03:52:12;9.43;;;5.03;;
51907;SDS011;39320;53.214;6.556;2022-07-09T03:54:38;8.38;;;4.18;;
51907;SDS011;39320;53.214;6.556;2022-07-09T03:57:04;6.68;;;4.40;;
51907;SDS011;39320;53.214;6.556;2022-07-09T03:59:30;12.23;;;5.13;;
51907;SDS011;39320;53.214;6.556;2022-07-09T04:01:56;10.73;;;4.65;;
51907;SDS011;39320;53.214;6.556;2022-07-09T04:04:21;10.02;;;4.53;;
51907;SDS011;39320;53.214;6.556;2022-07-09T04:06:47;8.73;;;4.95;;
51907;SDS011;39320;53.214;6.556;2022-07-09T04:09:13;9.32;;;4.90;;
51907;SDS011;39320;53.214;6.556;2022-07-09T04:11:39;9.68;;;4.70;;
51907;SDS011;39320;53.214;6.556;2022-07-09T04:14:04;10.00;;;5.20;;
51907;SDS011;39320;53.214;6.556;2022-07-09T04:16:30;12.02;;;4.80;;
51907;SDS011;39320;53.214;6.556;2022-07-09T04:18:56;8.38;;;4.95;;
51907;SDS011;39320;53.214;6.556;2022-07-09T04:21:22;9.10;;;4.35;;
51907;SDS011;39320;53.214;6.556;2022-07-09T04:23:48;12.68;;;5.13;;
51907;SDS011;39320;53.214;6.556;2022-07-09T04:26:14;8.27;;;5.00;;
51907;SDS011;39320;53.214;6.556;2022-07-09T04:28:40;10.85;;;4.95;;
51907;SDS011;39320;53.214;6.556;2022-07-09T04:31:06;9.35;;;4.80;;
51907;SDS011;39320;53.214;6.556;2022-07-09T04:33:32;9.85;;;4.82;;
51907;SDS011;39320;53.214;6.556;2022-07-09T04:35:58;8.18;;;4.45;;
51907;SDS011;39320;53.214;6.556;2022-07-09T04:38:23;8.13;;;5.30;;
51907;SDS011;39320;53.214;6.556;2022-07-09T04:40:50;8.52;;;5.22;;
51907;SDS011;39320;53.214;6.556;2022-07-09T04:43:16;11.70;;;5.30;;
51907;SDS011;39320;53.214;6.556;2022-07-09T04:45:42;10.13;;;4.47;;
51907;SDS011;39320;53.214;6.556;2022-07-09T04:48:08;10.63;;;5.50;;
51907;SDS011;39320;53.214;6.556;2022-07-09T04:50:34;7.70;;;4.72;;
51907;SDS011;39320;53.214;6.556;2022-07-09T04:52:59;10.70;;;5.28;;
51907;SDS011;39320;53.214;6.556;2022-07-09T04:55:25;10.10;;;4.28;;
51907;SDS011;39320;53.214;6.556;2022-07-09T04:57:51;8.77;;;4.70;;
51907;SDS011;39320;53.214;6.556;2022-07-09T05:00:17;9.10;;;5.22;;
51907;SDS011;39320;53.214;6.556;2022-07-09T05:02:43;9.07;;;4.90;;
51907;SDS011;39320;53.214;6.556;2022-07-09T05:05:10;8.85;;;4.78;;
51907;SDS011;39320;53.214;6.556;2022-07-09T05:07:36;11.57;;;4.75;;
51907;SDS011;39320;53.214;6.556;2022-07-09T05:10:03;11.00;;;5.07;;
51907;SDS011;39320;53.214;6.556;2022-07-09T05:12:29;11.25;;;4.68;;
51907;SDS011;39320;53.214;6.556;2022-07-09T05:14:55;9.65;;;5.53;;
51907;SDS011;39320;53.214;6.556;2022-07-09T05:17:25;7.32;;;4.22;;
51907;SDS011;39320;53.214;6.556;2022-07-09T05:19:50;9.73;;;5.00;;
51907;SDS011;39320;53.214;6.556;2022-07-09T05:22:16;6.95;;;4.18;;
51907;SDS011;39320;53.214;6.556;2022-07-09T05:24:42;8.13;;;4.63;;
51907;SDS011;39320;53.214;6.556;2022-07-09T05:27:08;10.18;;;4.47;;
51907;SDS011;39320;53.214;6.556;2022-07-09T05:29:35;7.95;;;4.22;;
51907;SDS011;39320;53.214;6.556;2022-07-09T05:32:01;8.48;;;4.47;;
51907;SDS011;39320;53.214;6.556;2022-07-09T05:34:28;7.70;;;4.13;;
51907;SDS011;39320;53.214;6.556;2022-07-09T05:36:53;11.55;;;4.65;;
51907;SDS011;39320;53.214;6.556;2022-07-09T05:39:23;8.30;;;5.03;;
51907;SDS011;39320;53.214;6.556;2022-07-09T05:41:49;11.13;;;4.05;;
51907;SDS011;39320;53.214;6.556;2022-07-09T05:44:14;7.35;;;4.50;;
51907;SDS011;39320;53.214;6.556;2022-07-09T05:46:40;10.02;;;4.60;;
51907;SDS011;39320;53.214;6.556;2022-07-09T05:49:06;7.30;;;4.63;;
51907;SDS011;39320;53.214;6.556;2022-07-09T05:51:33;8.35;;;4.75;;
51907;SDS011;39320;53.214;6.556;2022-07-09T05:53:59;8.93;;;4.43;;
51907;SDS011;39320;53.214;6.556;2022-07-09T05:56:24;11.48;;;4.53;;
51907;SDS011;39320;53.214;6.556;2022-07-09T05:58:50;8.65;;;4.25;;
51907;SDS011;39320;53.214;6.556;2022-07-09T06:01:16;8.55;;;4.78;;
51907;SDS011;39320;53.214;6.556;2022-07-09T06:03:42;8.93;;;4.35;;
51907;SDS011;39320;53.214;6.556;2022-07-09T06:06:08;7.75;;;4.00;;
51907;SDS011;39320;53.214;6.556;2022-07-09T06:08:34;7.28;;;3.78;;
51907;SDS011;39320;53.214;6.556;2022-07-09T06:11:00;9.60;;;4.68;;
51907;SDS011;39320;53.214;6.556;2022-07-09T06:13:27;7.28;;;4.00;;
51907;SDS011;39320;53.214;6.556;2022-07-09T06:15:53;8.07;;;3.80;;
51907;SDS011;39320;53.214;6.556;2022-07-09T06:18:19;7.15;;;4.10;;
51907;SDS011;39320;53.214;6.556;2022-07-09T06:20:45;7.20;;;4.10;;
51907;SDS011;39320;53.214;6.556;2022-07-09T06:23:11;7.18;;;3.53;;
51907;SDS011;39320;53.214;6.556;2022-07-09T06:25:37;8.38;;;4.22;;
51907;SDS011;39320;53.214;6.556;2022-07-09T06:28:04;7.97;;;3.55;;
51907;SDS011;39320;53.214;6.556;2022-07-09T06:30:30;6.35;;;3.55;;
51907;SDS011;39320;53.214;6.556;2022-07-09T06:32:56;9.90;;;3.97;;
51907;SDS011;39320;53.214;6.556;2022-07-09T06:35:22;7.28;;;3.78;;
51907;SDS011;39320;53.214;6.556;2022-07-09T06:37:48;7.18;;;3.88;;
51907;SDS011;39320;53.214;6.556;2022-07-09T06:40:14;7.75;;;3.65;;
51907;SDS011;39320;53.214;6.556;2022-07-09T06:42:40;7.45;;;3.40;;
51907;SDS011;39320;53.214;6.556;2022-07-09T06:45:06;7.38;;;3.72;;
51907;SDS011;39320;53.214;6.556;2022-07-09T06:47:33;6.68;;;3.38;;
51907;SDS011;39320;53.214;6.556;2022-07-09T06:49:58;7.85;;;3.30;;
51907;SDS011;39320;53.214;6.556;2022-07-09T06:52:24;5.70;;;3.45;;
51907;SDS011;39320;53.214;6.556;2022-07-09T06:54:50;8.35;;;3.50;;
51907;SDS011;39320;53.214;6.556;2022-07-09T06:57:16;6.53;;;3.72;;
51907;SDS011;39320;53.214;6.556;2022-07-09T06:59:42;6.35;;;3.67;;
51907;SDS011;39320;53.214;6.556;2022-07-09T07:02:10;10.05;;;3.72;;
51907;SDS011;39320;53.214;6.556;2022-07-09T07:04:36;8.50;;;3.53;;
51907;SDS011;39320;53.214;6.556;2022-07-09T07:07:02;7.88;;;3.10;;
51907;SDS011;39320;53.214;6.556;2022-07-09T07:09:29;5.25;;;3.15;;
51907;SDS011;39320;53.214;6.556;2022-07-09T07:11:55;5.30;;;2.30;;
51907;SDS011;39320;53.214;6.556;2022-07-09T07:14:21;8.25;;;2.40;;
51907;SDS011;39320;53.214;6.556;2022-07-09T07:16:47;4.80;;;3.13;;
51907;SDS011;39320;53.214;6.556;2022-07-09T07:19:13;10.00;;;2.90;;
51907;SDS011;39320;53.214;6.556;2022-07-09T07:21:39;6.95;;;2.70;;
51907;SDS011;39320;53.214;6.556;2022-07-09T07:24:05;6.72;;;3.50;;
51907;SDS011;39320;53.214;6.556;2022-07-09T07:26:32;7.72;;;2.85;;
51907;SDS011;39320;53.214;6.556;2022-07-09T07:28:58;8.15;;;2.15;;
51907;SDS011;39320;53.214;6.556;2022-07-09T07:31:24;5.18;;;2.33;;
51907;SDS011;39320;53.214;6.556;2022-07-09T07:33:50;7.13;;;2.38;;
51907;SDS011;39320;53.214;6.556;2022-07-09T07:36:16;4.90;;;2.28;;
51907;SDS011;39320;53.214;6.556;2022-07-09T07:38:42;2.83;;;1.65;;
51907;SDS011;39320;53.214;6.556;2022-07-09T07:41:08;9.02;;;2.60;;
51907;SDS011;39320;53.214;6.556;2022-07-09T07:43:33;8.43;;;2.55;;
51907;SDS011;39320;53.214;6.556;2022-07-09T07:45:59;9.43;;;2.75;;
51907;SDS011;39320;53.214;6.556;2022-07-09T07:48:25;5.50;;;2.10;;
51907;SDS011;39320;53.214;6.556;2022-07-09T07:50:52;9.60;;;2.53;;
51907;SDS011;39320;53.214;6.556;2022-07-09T07:53:19;5.28;;;2.20;;
51907;SDS011;39320;53.214;6.556;2022-07-09T07:55:45;5.10;;;2.50;;
51907;SDS011;39320;53.214;6.556;2022-07-09T07:58:11;5.90;;;1.90;;
51907;SDS011;39320;53.214;6.556;2022-07-09T08:00:37;5.03;;;1.88;;
51907;SDS011;39320;53.214;6.556;2022-07-09T08:03:03;5.60;;;1.88;;
51907;SDS011;39320;53.214;6.556;2022-07-09T08:05:29;5.45;;;2.05;;
51907;SDS011;39320;53.214;6.556;2022-07-09T08:07:55;5.25;;;2.20;;
51907;SDS011;39320;53.214;6.556;2022-07-09T08:10:20;6.88;;;2.13;;
51907;SDS011;39320;53.214;6.556;2022-07-09T08:12:46;5.95;;;2.53;;
51907;SDS011;39320;53.214;6.556;2022-07-09T08:15:12;8.43;;;2.38;;
51907;SDS011;39320;53.214;6.556;2022-07-09T08:17:38;5.22;;;2.05;;
51907;SDS011;39320;53.214;6.556;2022-07-09T08:20:04;6.50;;;2.35;;
51907;SDS011;39320;53.214;6.556;2022-07-09T08:22:30;5.22;;;2.10;;
51907;SDS011;39320;53.214;6.556;2022-07-09T08:24:56;10.88;;;2.13;;
51907;SDS011;39320;53.214;6.556;2022-07-09T08:27:22;10.30;;;1.90;;
51907;SDS011;39320;53.214;6.556;2022-07-09T08:29:48;6.90;;;2.38;;
51907;SDS011;39320;53.214;6.556;2022-07-09T08:32:15;4.97;;;2.10;;
51907;SDS011;39320;53.214;6.556;2022-07-09T08:34:41;6.00;;;2.72;;
51907;SDS011;39320;53.214;6.556;2022-07-09T08:37:06;5.65;;;2.00;;
51907;SDS011;39320;53.214;6.556;2022-07-09T08:39:32;5.63;;;2.63;;
51907;SDS011;39320;53.214;6.556;2022-07-09T08:41:58;6.15;;;2.22;;
51907;SDS011;39320;53.214;6.556;2022-07-09T08:44:30;6.18;;;2.15;;
51907;SDS011;39320;53.214;6.556;2022-07-09T08:47:00;9.23;;;2.38;;
51907;SDS011;39320;53.214;6.556;2022-07-09T08:49:26;5.43;;;2.35;;
51907;SDS011;39320;53.214;6.556;2022-07-09T08:51:56;9.10;;;2.70;;
51907;SDS011;39320;53.214;6.556;2022-07-09T08:54:23;5.72;;;2.33;;
51907;SDS011;39320;53.214;6.556;2022-07-09T08:56:52;3.75;;;2.17;;
51907;SDS011;39320;53.214;6.556;2022-07-09T08:59:18;6.47;;;2.38;;
51907;SDS011;39320;53.214;6.556;2022-07-09T09:01:44;6.43;;;2.25;;
51907;SDS011;39320;53.214;6.556;2022-07-09T09:04:10;6.47;;;2.17;;
51907;SDS011;39320;53.214;6.556;2022-07-09T09:06:36;5.97;;;2.42;;
51907;SDS011;39320;53.214;6.556;2022-07-09T09:09:03;7.45;;;2.30;;
51907;SDS011;39320;53.214;6.556;2022-07-09T09:11:29;4.13;;;2.13;;
51907;SDS011;39320;53.214;6.556;2022-07-09T09:13:56;5.55;;;2.30;;
51907;SDS011;39320;53.214;6.556;2022-07-09T09:16:23;7.68;;;2.63;;
51907;SDS011;39320;53.214;6.556;2022-07-09T09:18:50;4.22;;;1.95;;
51907;SDS011;39320;53.214;6.556;2022-07-09T09:21:21;6.47;;;2.45;;
51907;SDS011;39320;53.214;6.556;2022-07-09T09:23:51;5.28;;;2.78;;
51907;SDS011;39320;53.214;6.556;2022-07-09T09:26:23;6.45;;;2.13;;
51907;SDS011;39320;53.214;6.556;2022-07-09T09:28:51;5.22;;;2.30;;
51907;SDS011;39320;53.214;6.556;2022-07-09T09:36:38;8.35;;;2.40;;
51907;SDS011;39320;53.214;6.556;2022-07-09T09:41:41;7.15;;;2.17;;
51907;SDS011;39320;53.214;6.556;2022-07-09T09:44:15;6.50;;;2.25;;
51907;SDS011;39320;53.214;6.556;2022-07-09T09:46:52;5.07;;;2.10;;
51907;SDS011;39320;53.214;6.556;2022-07-09T09:49:19;5.30;;;2.08;;
51907;SDS011;39320;53.214;6.556;2022-07-09T09:51:51;5.80;;;2.10;;
51907;SDS011;39320;53.214;6.556;2022-07-09T09:54:21;5.38;;;2.40;;
51907;SDS011;39320;53.214;6.556;2022-07-09T09:56:48;7.78;;;3.25;;
51907;SDS011;39320;53.214;6.556;2022-07-09T09:59:15;7.80;;;2.90;;
51907;SDS011;39320;53.214;6.556;2022-07-09T10:01:43;6.53;;;2.50;;
51907;SDS011;39320;53.214;6.556;2022-07-09T10:04:10;8.55;;;2.78;;
51907;SDS011;39320;53.214;6.556;2022-07-09T10:06:38;5.85;;;2.55;;
51907;SDS011;39320;53.214;6.556;2022-07-09T10:09:05;6.53;;;2.58;;
51907;SDS011;39320;53.214;6.556;2022-07-09T10:14:05;8.05;;;2.38;;
51907;SDS011;39320;53.214;6.556;2022-07-09T10:16:33;4.75;;;2.35;;
51907;SDS011;39320;53.214;6.556;2022-07-09T10:19:05;7.32;;;2.40;;
51907;SDS011;39320;53.214;6.556;2022-07-09T10:21:39;6.22;;;2.92;;
51907;SDS011;39320;53.214;6.556;2022-07-09T10:24:06;8.82;;;2.53;;
51907;SDS011;39320;53.214;6.556;2022-07-09T10:26:34;8.55;;;3.10;;
51907;SDS011;39320;53.214;6.556;2022-07-09T10:29:00;5.57;;;2.22;;
51907;SDS011;39320;53.214;6.556;2022-07-09T10:31:26;6.93;;;2.65;;
51907;SDS011;39320;53.214;6.556;2022-07-09T10:33:59;6.35;;;2.08;;
51907;SDS011;39320;53.214;6.556;2022-07-09T10:36:32;10.95;;;2.70;;
51907;SDS011;39320;53.214;6.556;2022-07-09T10:38:58;7.28;;;2.33;;
51907;SDS011;39320;53.214;6.556;2022-07-09T10:41:24;7.70;;;3.25;;
51907;SDS011;39320;53.214;6.556;2022-07-09T10:43:50;9.20;;;3.03;;
51907;SDS011;39320;53.214;6.556;2022-07-09T10:46:17;13.57;;;3.08;;
51907;SDS011;39320;53.214;6.556;2022-07-09T10:48:44;4.82;;;2.60;;
51907;SDS011;39320;53.214;6.556;2022-07-09T10:51:20;9.02;;;2.90;;
51907;SDS011;39320;53.214;6.556;2022-07-09T10:53:47;8.98;;;2.53;;
51907;SDS011;39320;53.214;6.556;2022-07-09T10:56:17;8.20;;;2.35;;
51907;SDS011;39320;53.214;6.556;2022-07-09T10:58:47;11.02;;;2.60;;
51907;SDS011;39320;53.214;6.556;2022-07-09T11:01:20;4.28;;;1.90;;
51907;SDS011;39320;53.214;6.556;2022-07-09T11:03:49;7.25;;;1.77;;
51907;SDS011;39320;53.214;6.556;2022-07-09T11:06:16;3.75;;;1.85;;
51907;SDS011;39320;53.214;6.556;2022-07-09T11:08:42;3.50;;;1.42;;
51907;SDS011;39320;53.214;6.556;2022-07-09T11:11:07;5.75;;;1.70;;
51907;SDS011;39320;53.214;6.556;2022-07-09T11:13:33;5.75;;;1.83;;
51907;SDS011;39320;53.214;6.556;2022-07-09T11:15:59;3.92;;;1.40;;
51907;SDS011;39320;53.214;6.556;2022-07-09T11:18:26;6.03;;;2.17;;
51907;SDS011;39320;53.214;6.556;2022-07-09T11:20:52;5.00;;;1.33;;
51907;SDS011;39320;53.214;6.556;2022-07-09T11:23:18;3.15;;;1.65;;
51907;SDS011;39320;53.214;6.556;2022-07-09T11:25:44;4.75;;;1.00;;
51907;SDS011;39320;53.214;6.556;2022-07-09T11:28:18;6.70;;;2.03;;
51907;SDS011;39320;53.214;6.556;2022-07-09T11:31:01;5.60;;;1.80;;
51907;SDS011;39320;53.214;6.556;2022-07-09T11:33:29;4.10;;;1.85;;
51907;SDS011;39320;53.214;6.556;2022-07-09T11:36:16;4.45;;;1.20;;
51907;SDS011;39320;53.214;6.556;2022-07-09T11:38:52;4.03;;;1.95;;
51907;SDS011;39320;53.214;6.556;2022-07-09T11:41:18;6.28;;;1.50;;
51907;SDS011;39320;53.214;6.556;2022-07-09T11:43:45;2.85;;;1.17;;
51907;SDS011;39320;53.214;6.556;2022-07-09T11:46:21;5.13;;;1.60;;
51907;SDS011;39320;53.214;6.556;2022-07-09T11:51:26;2.65;;;1.13;;
51907;SDS011;39320;53.214;6.556;2022-07-09T11:53:52;7.10;;;1.55;;
51907;SDS011;39320;53.214;6.556;2022-07-09T11:56:18;5.05;;;1.45;;
51907;SDS011;39320;53.214;6.556;2022-07-09T11:58:51;4.10;;;1.20;;
51907;SDS011;39320;53.214;6.556;2022-07-09T12:01:18;3.05;;;1.10;;
51907;SDS011;39320;53.214;6.556;2022-07-09T12:03:48;6.50;;;1.15;;
51907;SDS011;39320;53.214;6.556;2022-07-09T12:06:15;4.38;;;1.33;;
51907;SDS011;39320;53.214;6.556;2022-07-09T12:08:41;5.55;;;1.40;;
51907;SDS011;39320;53.214;6.556;2022-07-09T12:11:08;4.50;;;1.42;;
51907;SDS011;39320;53.214;6.556;2022-07-09T12:13:34;4.00;;;1.40;;
51907;SDS011;39320;53.214;6.556;2022-07-09T12:16:00;7.53;;;1.45;;
51907;SDS011;39320;53.214;6.556;2022-07-09T12:18:25;5.63;;;1.30;;
51907;SDS011;39320;53.214;6.556;2022-07-09T12:20:52;4.28;;;1.35;;
51907;SDS011;39320;53.214;6.556;2022-07-09T12:23:18;4.22;;;1.67;;
51907;SDS011;39320;53.214;6.556;2022-07-09T12:25:43;4.57;;;1.15;;
51907;SDS011;39320;53.214;6.556;2022-07-09T12:28:10;5.60;;;1.70;;
51907;SDS011;39320;53.214;6.556;2022-07-09T12:30:35;4.70;;;1.95;;
51907;SDS011;39320;53.214;6.556;2022-07-09T12:33:01;4.13;;;1.23;;
51907;SDS011;39320;53.214;6.556;2022-07-09T12:35:27;6.72;;;1.48;;
51907;SDS011;39320;53.214;6.556;2022-07-09T12:37:53;5.20;;;1.70;;
51907;SDS011;39320;53.214;6.556;2022-07-09T12:40:21;6.25;;;1.40;;
51907;SDS011;39320;53.214;6.556;2022-07-09T12:42:46;3.63;;;1.42;;
51907;SDS011;39320;53.214;6.556;2022-07-09T12:45:12;5.30;;;1.20;;
51907;SDS011;39320;53.214;6.556;2022-07-09T12:47:38;5.35;;;1.55;;
51907;SDS011;39320;53.214;6.556;2022-07-09T12:50:05;4.63;;;1.23;;
51907;SDS011;39320;53.214;6.556;2022-07-09T12:52:31;5.00;;;1.27;;
51907;SDS011;39320;53.214;6.556;2022-07-09T12:55:03;6.78;;;1.42;;
51907;SDS011;39320;53.214;6.556;2022-07-09T12:57:29;3.83;;;1.38;;
51907;SDS011;39320;53.214;6.556;2022-07-09T12:59:55;4.03;;;1.30;;
51907;SDS011;39320;53.214;6.556;2022-07-09T13:02:21;7.68;;;1.30;;
51907;SDS011;39320;53.214;6.556;2022-07-09T13:04:47;7.15;;;1.27;;
51907;SDS011;39320;53.214;6.556;2022-07-09T13:07:13;7.60;;;1.75;;
51907;SDS011;39320;53.214;6.556;2022-07-09T13:09:39;3.67;;;1.35;;
51907;SDS011;39320;53.214;6.556;2022-07-09T13:12:05;6.10;;;1.45;;
51907;SDS011;39320;53.214;6.556;2022-07-09T13:14:31;5.32;;;1.10;;
51907;SDS011;39320;53.214;6.556;2022-07-09T13:16:57;4.68;;;1.45;;
51907;SDS011;39320;53.214;6.556;2022-07-09T13:19:23;3.47;;;1.17;;
51907;SDS011;39320;53.214;6.556;2022-07-09T13:21:48;4.95;;;1.45;;
51907;SDS011;39320;53.214;6.556;2022-07-09T13:24:14;6.75;;;1.58;;
51907;SDS011;39320;53.214;6.556;2022-07-09T13:26:40;7.07;;;1.50;;
51907;SDS011;39320;53.214;6.556;2022-07-09T13:29:06;5.88;;;1.60;;
51907;SDS011;39320;53.214;6.556;2022-07-09T13:31:33;8.70;;;1.73;;
51907;SDS011;39320;53.214;6.556;2022-07-09T13:33:58;3.90;;;1.38;;
51907;SDS011;39320;53.214;6.556;2022-07-09T13:36:24;4.93;;;1.20;;
51907;SDS011;39320;53.214;6.556;2022-07-09T13:38:50;4.78;;;1.30;;
51907;SDS011;39320;53.214;6.556;2022-07-09T13:41:16;4.57;;;1.67;;
51907;SDS011;39320;53.214;6.556;2022-07-09T13:43:42;6.38;;;1.42;;
51907;SDS011;39320;53.214;6.556;2022-07-09T13:46:10;4.78;;;1.15;;
51907;SDS011;39320;53.214;6.556;2022-07-09T13:48:36;4.03;;;1.10;;
51907;SDS011;39320;53.214;6.556;2022-07-09T13:51:02;2.97;;;1.05;;
51907;SDS011;39320;53.214;6.556;2022-07-09T13:53:28;6.93;;;1.75;;
51907;SDS011;39320;53.214;6.556;2022-07-09T13:55:55;4.28;;;1.08;;
51907;SDS011;39320;53.214;6.556;2022-07-09T13:58:21;4.47;;;1.58;;
51907;SDS011;39320;53.214;6.556;2022-07-09T14:00:47;5.00;;;1.67;;
51907;SDS011;39320;53.214;6.556;2022-07-09T14:03:13;4.68;;;1.10;;
51907;SDS011;39320;53.214;6.556;2022-07-09T14:05:39;5.00;;;1.27;;
51907;SDS011;39320;53.214;6.556;2022-07-09T14:08:05;6.03;;;1.35;;
51907;SDS011;39320;53.214;6.556;2022-07-09T14:10:31;5.53;;;1.30;;
51907;SDS011;39320;53.214;6.556;2022-07-09T14:12:58;6.65;;;1.65;;
51907;SDS011;39320;53.214;6.556;2022-07-09T14:15:24;8.15;;;1.50;;
51907;SDS011;39320;53.214;6.556;2022-07-09T14:17:50;9.75;;;1.65;;
51907;SDS011;39320;53.214;6.556;2022-07-09T14:20:16;6.07;;;1.40;;
51907;SDS011;39320;53.214;6.556;2022-07-09T14:22:42;6.13;;;1.45;;
51907;SDS011;39320;53.214;6.556;2022-07-09T14:25:07;3.00;;;1.42;;
51907;SDS011;39320;53.214;6.556;2022-07-09T14:27:33;4.63;;;1.73;;
51907;SDS011;39320;53.214;6.556;2022-07-09T14:29:59;5.38;;;1.70;;
51907;SDS011;39320;53.214;6.556;2022-07-09T14:32:25;5.50;;;1.88;;
51907;SDS011;39320;53.214;6.556;2022-07-09T14:34:50;7.05;;;2.42;;
51907;SDS011;39320;53.214;6.556;2022-07-09T14:37:16;4.18;;;1.50;;
51907;SDS011;39320;53.214;6.556;2022-07-09T14:39:42;5.25;;;1.42;;
51907;SDS011;39320;53.214;6.556;2022-07-09T14:42:08;4.18;;;1.08;;
51907;SDS011;39320;53.214;6.556;2022-07-09T14:44:33;4.95;;;1.88;;
51907;SDS011;39320;53.214;6.556;2022-07-09T14:46:59;2.28;;;1.00;;
51907;SDS011;39320;53.214;6.556;2022-07-09T14:49:25;3.28;;;1.13;;
51907;SDS011;39320;53.214;6.556;2022-07-09T14:51:52;3.30;;;1.30;;